Cheney, KS (67025)

12:25 PM CDT on August 31, 2016 (GMT -0500)
North Marshall Street | | Change Station

Elev 1407 ft 37.63 °N, 97.78 °W | Updated 8 seconds ago

Light Rain
Light Rain
75.6 °F
Feels Like 76 °F
N
2.5
Wind Variable Wind from NW
Gusts 2.5 mph

Today
High -- | Low -- °F
--% Chance of Precip.
Yesterday
High -- | Low -- °F
Precip. -- in
Pressure 30.15 in
Visibility 10.0 miles
Clouds Scattered Clouds 1000 ft
Mostly Cloudy 1500 ft
Mostly Cloudy 3600 ft
Overcast 14000 ft
Heat Index 76 °F
Dew Point 71 °F
Humidity 87%
Rainfall 0.00 in
Snow Depth Not available.
7:00 AM 8:00 PM
Waning Crescent, 0% visible
SPECI KICT 311716Z 03008KT 10SM -RA SCT010 BKN015 BKN036 OVC140 24/21 A3015 RMK AO2 RAB15 PCPN VRY LGT P0000 T02390211
Pressure 30.15 in
Visibility 10.0 miles
Clouds Scattered Clouds 1000 ft
Mostly Cloudy 1500 ft
Mostly Cloudy 3600 ft
Overcast 14000 ft
Heat Index 76 °F
Dew Point 71 °F
Humidity 87%
Rainfall 0.00 in
Snow Depth Not available.
7:00 AM 8:00 PM
Waning Crescent, 0% visible
SPECI KICT 311716Z 03008KT 10SM -RA SCT010 BKN015 BKN036 OVC140 24/21 A3015 RMK AO2 RAB15 PCPN VRY LGT P0000 T02390211

10-Day Weather Forecast

Almanac

Astronomy

Aug. 31, 2016 Rise Set
Actual Time
Civil Twilight
Nautical Twilight
Astronomical Twilight
Moon
Length of Visible Light
Length of Day
Tomorrow will be .
, % of the Moon is Illuminated

Today's Extremes

State Highs State Lows

Community

WunderPhotos

Upload Photos

1,936,137 photos uploaded!

WunderBlog® & News

Nearby

Air Quality

  Air Quality AQ Index Pollutant
Not available.

Snow Depth

Station Depth Elevation

Earthquake Activity

City Distance Mag. Time & Date
Minimum magnitude displayed is 2.5.

Coastal Water Temperatures

Place Temperature

Stations

Nearby Weather Stations

Station Location Temp. Windchill Dew Point Humidity Wind Precip. Elev Updated Type
                   

Watches & Warnings

There are currently no watches in effect.